sensor_id;sensor_type;location;lat;lon;timestamp;P1;durP1;ratioP1;P2;durP2;ratioP2
51901;SDS011;37929;53.218;6.548;2023-04-16T00:02:21;39.75;;;16.73;;
51901;SDS011;37929;53.218;6.548;2023-04-16T00:04:46;36.50;;;16.23;;
51901;SDS011;37929;53.218;6.548;2023-04-16T00:07:12;34.78;;;15.32;;
51901;SDS011;37929;53.218;6.548;2023-04-16T00:09:38;30.80;;;14.90;;
51901;SDS011;37929;53.218;6.548;2023-04-16T00:12:03;31.55;;;14.93;;
51901;SDS011;37929;53.218;6.548;2023-04-16T00:14:30;32.42;;;15.10;;
51901;SDS011;37929;53.218;6.548;2023-04-16T00:16:56;38.10;;;15.48;;
51901;SDS011;37929;53.218;6.548;2023-04-16T00:19:21;37.90;;;14.88;;
51901;SDS011;37929;53.218;6.548;2023-04-16T00:21:47;37.60;;;16.75;;
51901;SDS011;37929;53.218;6.548;2023-04-16T00:24:13;33.83;;;16.02;;
51901;SDS011;37929;53.218;6.548;2023-04-16T00:26:38;34.35;;;15.60;;
51901;SDS011;37929;53.218;6.548;2023-04-16T00:29:05;36.60;;;16.25;;
51901;SDS011;37929;53.218;6.548;2023-04-16T00:31:32;36.55;;;16.10;;
51901;SDS011;37929;53.218;6.548;2023-04-16T00:33:58;36.45;;;16.98;;
51901;SDS011;37929;53.218;6.548;2023-04-16T00:36:24;33.03;;;16.17;;
51901;SDS011;37929;53.218;6.548;2023-04-16T00:38:51;38.65;;;17.67;;
51901;SDS011;37929;53.218;6.548;2023-04-16T00:41:18;33.45;;;16.45;;
51901;SDS011;37929;53.218;6.548;2023-04-16T00:43:44;38.53;;;17.85;;
51901;SDS011;37929;53.218;6.548;2023-04-16T00:46:10;37.70;;;16.75;;
51901;SDS011;37929;53.218;6.548;2023-04-16T00:48:37;36.88;;;17.13;;
51901;SDS011;37929;53.218;6.548;2023-04-16T00:51:05;30.95;;;16.63;;
51901;SDS011;37929;53.218;6.548;2023-04-16T00:53:31;34.10;;;16.75;;
51901;SDS011;37929;53.218;6.548;2023-04-16T00:55:58;36.58;;;17.38;;
51901;SDS011;37929;53.218;6.548;2023-04-16T00:58:26;36.17;;;17.48;;
51901;SDS011;37929;53.218;6.548;2023-04-16T01:00:53;30.35;;;15.75;;
51901;SDS011;37929;53.218;6.548;2023-04-16T01:03:19;35.80;;;16.83;;
51901;SDS011;37929;53.218;6.548;2023-04-16T01:05:45;35.88;;;16.65;;
51901;SDS011;37929;53.218;6.548;2023-04-16T01:08:16;38.30;;;17.02;;
51901;SDS011;37929;53.218;6.548;2023-04-16T01:10:43;35.63;;;16.83;;
51901;SDS011;37929;53.218;6.548;2023-04-16T01:13:09;41.13;;;17.80;;
51901;SDS011;37929;53.218;6.548;2023-04-16T01:15:35;28.05;;;16.63;;
51901;SDS011;37929;53.218;6.548;2023-04-16T01:18:01;31.13;;;16.73;;
51901;SDS011;37929;53.218;6.548;2023-04-16T01:20:27;32.97;;;18.55;;
51901;SDS011;37929;53.218;6.548;2023-04-16T01:22:53;40.28;;;17.80;;
51901;SDS011;37929;53.218;6.548;2023-04-16T01:25:19;38.75;;;18.30;;
51901;SDS011;37929;53.218;6.548;2023-04-16T01:27:48;41.28;;;17.83;;
51901;SDS011;37929;53.218;6.548;2023-04-16T01:30:14;39.00;;;17.50;;
51901;SDS011;37929;53.218;6.548;2023-04-16T01:32:40;39.17;;;18.08;;
51901;SDS011;37929;53.218;6.548;2023-04-16T01:35:05;30.88;;;17.17;;
51901;SDS011;37929;53.218;6.548;2023-04-16T01:37:31;39.08;;;18.33;;
51901;SDS011;37929;53.218;6.548;2023-04-16T01:39:57;35.75;;;17.10;;
51901;SDS011;37929;53.218;6.548;2023-04-16T01:42:23;37.55;;;18.08;;
51901;SDS011;37929;53.218;6.548;2023-04-16T01:44:49;43.38;;;19.17;;
51901;SDS011;37929;53.218;6.548;2023-04-16T01:47:14;41.80;;;19.17;;
51901;SDS011;37929;53.218;6.548;2023-04-16T01:49:41;43.55;;;19.05;;
51901;SDS011;37929;53.218;6.548;2023-04-16T01:52:08;40.50;;;18.58;;
51901;SDS011;37929;53.218;6.548;2023-04-16T01:54:33;39.35;;;18.42;;
51901;SDS011;37929;53.218;6.548;2023-04-16T01:56:59;33.90;;;17.13;;
51901;SDS011;37929;53.218;6.548;2023-04-16T01:59:25;42.90;;;17.25;;
51901;SDS011;37929;53.218;6.548;2023-04-16T02:01:51;44.90;;;19.52;;
51901;SDS011;37929;53.218;6.548;2023-04-16T02:04:17;42.72;;;18.30;;
51901;SDS011;37929;53.218;6.548;2023-04-16T02:06:43;37.60;;;18.48;;
51901;SDS011;37929;53.218;6.548;2023-04-16T02:09:09;37.78;;;18.35;;
51901;SDS011;37929;53.218;6.548;2023-04-16T02:11:35;39.92;;;18.95;;
51901;SDS011;37929;53.218;6.548;2023-04-16T02:14:01;35.83;;;17.80;;
51901;SDS011;37929;53.218;6.548;2023-04-16T02:16:26;39.35;;;18.77;;
51901;SDS011;37929;53.218;6.548;2023-04-16T02:18:52;39.78;;;16.98;;
51901;SDS011;37929;53.218;6.548;2023-04-16T02:21:18;42.42;;;18.05;;
51901;SDS011;37929;53.218;6.548;2023-04-16T02:23:44;46.70;;;19.67;;
51901;SDS011;37929;53.218;6.548;2023-04-16T02:26:12;48.03;;;18.75;;
51901;SDS011;37929;53.218;6.548;2023-04-16T02:28:38;40.40;;;17.85;;
51901;SDS011;37929;53.218;6.548;2023-04-16T02:31:03;45.10;;;20.48;;
51901;SDS011;37929;53.218;6.548;2023-04-16T02:33:29;40.58;;;18.40;;
51901;SDS011;37929;53.218;6.548;2023-04-16T02:35:56;45.33;;;18.10;;
51901;SDS011;37929;53.218;6.548;2023-04-16T02:38:21;40.50;;;18.42;;
51901;SDS011;37929;53.218;6.548;2023-04-16T02:40:47;45.97;;;19.30;;
51901;SDS011;37929;53.218;6.548;2023-04-16T02:43:13;41.22;;;17.05;;
51901;SDS011;37929;53.218;6.548;2023-04-16T02:45:38;40.22;;;17.20;;
51901;SDS011;37929;53.218;6.548;2023-04-16T02:48:04;35.65;;;17.45;;
51901;SDS011;37929;53.218;6.548;2023-04-16T02:50:32;41.88;;;16.85;;
51901;SDS011;37929;53.218;6.548;2023-04-16T02:52:58;40.05;;;18.15;;
51901;SDS011;37929;53.218;6.548;2023-04-16T02:55:24;39.17;;;16.45;;
51901;SDS011;37929;53.218;6.548;2023-04-16T02:57:49;36.92;;;16.67;;
51901;SDS011;37929;53.218;6.548;2023-04-16T03:00:17;39.95;;;16.30;;
51901;SDS011;37929;53.218;6.548;2023-04-16T03:02:43;38.45;;;17.20;;
51901;SDS011;37929;53.218;6.548;2023-04-16T03:05:08;40.28;;;17.27;;
51901;SDS011;37929;53.218;6.548;2023-04-16T03:07:34;40.67;;;17.10;;
51901;SDS011;37929;53.218;6.548;2023-04-16T03:10:00;43.50;;;17.17;;
51901;SDS011;37929;53.218;6.548;2023-04-16T03:12:26;45.47;;;17.67;;
51901;SDS011;37929;53.218;6.548;2023-04-16T03:14:51;40.95;;;17.95;;
51901;SDS011;37929;53.218;6.548;2023-04-16T03:17:17;38.88;;;17.98;;
51901;SDS011;37929;53.218;6.548;2023-04-16T03:19:43;43.78;;;17.02;;
51901;SDS011;37929;53.218;6.548;2023-04-16T03:22:09;35.55;;;16.30;;
51901;SDS011;37929;53.218;6.548;2023-04-16T03:24:35;37.67;;;16.17;;
51901;SDS011;37929;53.218;6.548;2023-04-16T03:27:02;36.38;;;15.93;;
51901;SDS011;37929;53.218;6.548;2023-04-16T03:29:27;35.78;;;15.40;;
51901;SDS011;37929;53.218;6.548;2023-04-16T03:31:53;36.03;;;16.02;;
51901;SDS011;37929;53.218;6.548;2023-04-16T03:34:19;46.05;;;16.77;;
51901;SDS011;37929;53.218;6.548;2023-04-16T03:36:45;38.70;;;16.35;;
51901;SDS011;37929;53.218;6.548;2023-04-16T03:39:10;45.08;;;15.73;;
51901;SDS011;37929;53.218;6.548;2023-04-16T03:41:36;41.25;;;16.40;;
51901;SDS011;37929;53.218;6.548;2023-04-16T03:44:02;39.90;;;15.77;;
51901;SDS011;37929;53.218;6.548;2023-04-16T03:46:27;33.63;;;15.25;;
51901;SDS011;37929;53.218;6.548;2023-04-16T03:48:53;40.15;;;16.35;;
51901;SDS011;37929;53.218;6.548;2023-04-16T03:51:19;35.85;;;15.32;;
51901;SDS011;37929;53.218;6.548;2023-04-16T03:53:45;34.08;;;15.80;;
51901;SDS011;37929;53.218;6.548;2023-04-16T03:56:11;41.33;;;14.93;;
51901;SDS011;37929;53.218;6.548;2023-04-16T03:58:36;35.80;;;15.02;;
51901;SDS011;37929;53.218;6.548;2023-04-16T04:01:02;44.58;;;15.98;;
51901;SDS011;37929;53.218;6.548;2023-04-16T04:03:28;31.92;;;14.60;;
51901;SDS011;37929;53.218;6.548;2023-04-16T04:05:54;35.92;;;15.38;;
51901;SDS011;37929;53.218;6.548;2023-04-16T04:08:19;36.78;;;16.92;;
51901;SDS011;37929;53.218;6.548;2023-04-16T04:10:45;36.85;;;15.68;;
51901;SDS011;37929;53.218;6.548;2023-04-16T04:13:11;42.30;;;14.63;;
51901;SDS011;37929;53.218;6.548;2023-04-16T04:15:37;35.08;;;15.43;;
51901;SDS011;37929;53.218;6.548;2023-04-16T04:18:03;35.22;;;14.45;;
51901;SDS011;37929;53.218;6.548;2023-04-16T04:20:29;29.70;;;14.05;;
51901;SDS011;37929;53.218;6.548;2023-04-16T04:22:55;38.58;;;14.38;;
51901;SDS011;37929;53.218;6.548;2023-04-16T04:25:21;32.08;;;13.68;;
51901;SDS011;37929;53.218;6.548;2023-04-16T04:27:46;32.70;;;14.90;;
51901;SDS011;37929;53.218;6.548;2023-04-16T04:30:12;31.08;;;13.50;;
51901;SDS011;37929;53.218;6.548;2023-04-16T04:32:38;34.20;;;15.10;;
51901;SDS011;37929;53.218;6.548;2023-04-16T04:35:04;42.70;;;16.08;;
51901;SDS011;37929;53.218;6.548;2023-04-16T04:37:30;36.08;;;13.88;;
51901;SDS011;37929;53.218;6.548;2023-04-16T04:39:55;33.85;;;13.77;;
51901;SDS011;37929;53.218;6.548;2023-04-16T04:42:21;36.63;;;14.43;;
51901;SDS011;37929;53.218;6.548;2023-04-16T04:44:47;31.33;;;13.82;;
51901;SDS011;37929;53.218;6.548;2023-04-16T04:47:13;32.08;;;14.40;;
51901;SDS011;37929;53.218;6.548;2023-04-16T04:49:39;31.52;;;14.18;;
51901;SDS011;37929;53.218;6.548;2023-04-16T04:52:05;30.80;;;13.77;;
51901;SDS011;37929;53.218;6.548;2023-04-16T04:54:32;35.13;;;13.90;;
51901;SDS011;37929;53.218;6.548;2023-04-16T04:56:57;33.40;;;15.48;;
51901;SDS011;37929;53.218;6.548;2023-04-16T04:59:23;38.00;;;14.23;;
51901;SDS011;37929;53.218;6.548;2023-04-16T05:01:49;28.02;;;13.60;;
51901;SDS011;37929;53.218;6.548;2023-04-16T05:04:15;37.63;;;14.32;;
51901;SDS011;37929;53.218;6.548;2023-04-16T05:06:42;35.10;;;13.68;;
51901;SDS011;37929;53.218;6.548;2023-04-16T05:09:07;32.17;;;14.00;;
51901;SDS011;37929;53.218;6.548;2023-04-16T05:11:39;31.90;;;13.38;;
51901;SDS011;37929;53.218;6.548;2023-04-16T05:14:06;30.88;;;13.15;;
51901;SDS011;37929;53.218;6.548;2023-04-16T05:16:34;36.22;;;13.00;;
51901;SDS011;37929;53.218;6.548;2023-04-16T05:19:00;35.55;;;14.27;;
51901;SDS011;37929;53.218;6.548;2023-04-16T05:21:26;32.55;;;13.05;;
51901;SDS011;37929;53.218;6.548;2023-04-16T05:23:52;32.00;;;13.88;;
51901;SDS011;37929;53.218;6.548;2023-04-16T05:26:18;33.78;;;14.45;;
51901;SDS011;37929;53.218;6.548;2023-04-16T05:28:43;27.02;;;12.90;;
51901;SDS011;37929;53.218;6.548;2023-04-16T05:31:09;27.70;;;13.15;;
51901;SDS011;37929;53.218;6.548;2023-04-16T05:33:35;28.63;;;13.30;;
51901;SDS011;37929;53.218;6.548;2023-04-16T05:36:01;27.52;;;12.98;;
51901;SDS011;37929;53.218;6.548;2023-04-16T05:38:26;25.80;;;13.57;;
51901;SDS011;37929;53.218;6.548;2023-04-16T05:40:52;29.25;;;13.23;;
51901;SDS011;37929;53.218;6.548;2023-04-16T05:43:18;28.80;;;12.60;;
51901;SDS011;37929;53.218;6.548;2023-04-16T05:45:43;30.10;;;14.07;;
51901;SDS011;37929;53.218;6.548;2023-04-16T05:48:09;33.30;;;12.73;;
51901;SDS011;37929;53.218;6.548;2023-04-16T05:50:36;29.40;;;11.98;;
51901;SDS011;37929;53.218;6.548;2023-04-16T05:53:04;31.85;;;14.10;;
51901;SDS011;37929;53.218;6.548;2023-04-16T05:55:31;30.58;;;12.80;;
51901;SDS011;37929;53.218;6.548;2023-04-16T05:57:57;33.65;;;12.80;;
51901;SDS011;37929;53.218;6.548;2023-04-16T06:00:23;37.92;;;14.30;;
51901;SDS011;37929;53.218;6.548;2023-04-16T06:02:49;44.00;;;14.45;;
51901;SDS011;37929;53.218;6.548;2023-04-16T06:05:15;33.75;;;12.95;;
51901;SDS011;37929;53.218;6.548;2023-04-16T06:07:41;40.17;;;13.68;;
51901;SDS011;37929;53.218;6.548;2023-04-16T06:10:07;36.05;;;14.63;;
51901;SDS011;37929;53.218;6.548;2023-04-16T06:12:33;31.45;;;13.52;;
51901;SDS011;37929;53.218;6.548;2023-04-16T06:14:59;34.25;;;14.23;;
51901;SDS011;37929;53.218;6.548;2023-04-16T06:17:25;34.90;;;13.85;;
51901;SDS011;37929;53.218;6.548;2023-04-16T06:19:51;40.22;;;13.40;;
51901;SDS011;37929;53.218;6.548;2023-04-16T06:22:16;32.58;;;12.95;;
51901;SDS011;37929;53.218;6.548;2023-04-16T06:24:43;31.67;;;12.55;;
51901;SDS011;37929;53.218;6.548;2023-04-16T06:27:08;31.42;;;13.25;;
51901;SDS011;37929;53.218;6.548;2023-04-16T06:29:34;33.72;;;12.90;;
51901;SDS011;37929;53.218;6.548;2023-04-16T06:32:00;29.75;;;13.00;;
51901;SDS011;37929;53.218;6.548;2023-04-16T06:34:27;38.08;;;14.15;;
51901;SDS011;37929;53.218;6.548;2023-04-16T06:36:53;37.65;;;13.43;;
51901;SDS011;37929;53.218;6.548;2023-04-16T06:39:19;39.88;;;13.23;;
51901;SDS011;37929;53.218;6.548;2023-04-16T06:41:48;28.90;;;12.57;;
51901;SDS011;37929;53.218;6.548;2023-04-16T06:44:14;27.40;;;12.98;;
51901;SDS011;37929;53.218;6.548;2023-04-16T06:46:39;29.13;;;13.20;;
51901;SDS011;37929;53.218;6.548;2023-04-16T06:49:05;31.83;;;12.75;;
51901;SDS011;37929;53.218;6.548;2023-04-16T06:51:31;30.13;;;13.43;;
51901;SDS011;37929;53.218;6.548;2023-04-16T06:53:57;29.42;;;12.35;;
51901;SDS011;37929;53.218;6.548;2023-04-16T06:56:23;30.83;;;12.15;;
51901;SDS011;37929;53.218;6.548;2023-04-16T06:58:49;28.25;;;11.73;;
51901;SDS011;37929;53.218;6.548;2023-04-16T07:01:15;35.08;;;13.80;;
51901;SDS011;37929;53.218;6.548;2023-04-16T07:03:44;31.67;;;12.43;;
51901;SDS011;37929;53.218;6.548;2023-04-16T07:06:10;37.47;;;12.85;;
51901;SDS011;37929;53.218;6.548;2023-04-16T07:08:36;42.45;;;13.32;;
51901;SDS011;37929;53.218;6.548;2023-04-16T07:11:01;26.33;;;12.38;;
51901;SDS011;37929;53.218;6.548;2023-04-16T07:13:27;31.40;;;12.73;;
51901;SDS011;37929;53.218;6.548;2023-04-16T07:15:53;34.40;;;13.25;;
51901;SDS011;37929;53.218;6.548;2023-04-16T07:18:19;24.50;;;12.80;;
51901;SDS011;37929;53.218;6.548;2023-04-16T07:20:45;33.90;;;13.25;;
51901;SDS011;37929;53.218;6.548;2023-04-16T07:23:11;31.67;;;12.52;;
51901;SDS011;37929;53.218;6.548;2023-04-16T07:25:37;30.48;;;14.35;;
51901;SDS011;37929;53.218;6.548;2023-04-16T07:28:04;33.60;;;13.48;;
51901;SDS011;37929;53.218;6.548;2023-04-16T07:30:30;26.80;;;12.45;;
51901;SDS011;37929;53.218;6.548;2023-04-16T07:33:02;27.65;;;12.13;;
51901;SDS011;37929;53.218;6.548;2023-04-16T07:35:28;29.42;;;13.25;;
51901;SDS011;37929;53.218;6.548;2023-04-16T07:37:55;26.92;;;12.60;;
51901;SDS011;37929;53.218;6.548;2023-04-16T07:40:21;24.50;;;11.93;;
51901;SDS011;37929;53.218;6.548;2023-04-16T07:42:47;26.90;;;12.15;;
51901;SDS011;37929;53.218;6.548;2023-04-16T07:45:13;34.80;;;12.82;;
51901;SDS011;37929;53.218;6.548;2023-04-16T07:47:39;23.73;;;12.13;;
51901;SDS011;37929;53.218;6.548;2023-04-16T07:50:05;31.90;;;13.13;;
51901;SDS011;37929;53.218;6.548;2023-04-16T07:52:31;28.63;;;12.35;;
51901;SDS011;37929;53.218;6.548;2023-04-16T07:54:57;29.60;;;12.32;;
51901;SDS011;37929;53.218;6.548;2023-04-16T07:57:22;24.80;;;11.82;;
51901;SDS011;37929;53.218;6.548;2023-04-16T07:59:48;28.27;;;11.25;;
51901;SDS011;37929;53.218;6.548;2023-04-16T08:02:14;27.27;;;11.50;;
51901;SDS011;37929;53.218;6.548;2023-04-16T08:04:41;27.02;;;11.77;;
51901;SDS011;37929;53.218;6.548;2023-04-16T08:07:07;30.15;;;11.52;;
51901;SDS011;37929;53.218;6.548;2023-04-16T08:09:33;24.77;;;11.48;;
51901;SDS011;37929;53.218;6.548;2023-04-16T08:12:02;32.00;;;12.70;;
51901;SDS011;37929;53.218;6.548;2023-04-16T08:14:28;28.83;;;12.48;;
51901;SDS011;37929;53.218;6.548;2023-04-16T08:16:54;22.90;;;11.30;;
51901;SDS011;37929;53.218;6.548;2023-04-16T08:19:19;27.50;;;11.57;;
51901;SDS011;37929;53.218;6.548;2023-04-16T08:21:45;33.60;;;11.90;;
51901;SDS011;37929;53.218;6.548;2023-04-16T08:24:11;24.33;;;11.25;;
51901;SDS011;37929;53.218;6.548;2023-04-16T08:26:37;32.35;;;12.68;;
51901;SDS011;37929;53.218;6.548;2023-04-16T08:29:03;21.90;;;12.07;;
51901;SDS011;37929;53.218;6.548;2023-04-16T08:31:29;23.52;;;11.32;;
51901;SDS011;37929;53.218;6.548;2023-04-16T08:33:55;25.98;;;11.13;;
51901;SDS011;37929;53.218;6.548;2023-04-16T08:36:20;25.17;;;12.48;;
51901;SDS011;37929;53.218;6.548;2023-04-16T08:38:46;29.23;;;11.70;;
51901;SDS011;37929;53.218;6.548;2023-04-16T08:41:14;29.55;;;13.68;;
51901;SDS011;37929;53.218;6.548;2023-04-16T08:43:44;25.88;;;12.18;;
51901;SDS011;37929;53.218;6.548;2023-04-16T08:46:12;22.92;;;10.52;;
51901;SDS011;37929;53.218;6.548;2023-04-16T08:48:41;25.75;;;11.95;;
51901;SDS011;37929;53.218;6.548;2023-04-16T08:51:10;21.50;;;11.02;;
51901;SDS011;37929;53.218;6.548;2023-04-16T08:53:48;23.23;;;11.60;;
51901;SDS011;37929;53.218;6.548;2023-04-16T08:56:19;20.27;;;10.55;;
51901;SDS011;37929;53.218;6.548;2023-04-16T08:58:47;21.25;;;9.82;;
51901;SDS011;37929;53.218;6.548;2023-04-16T09:01:15;19.80;;;10.73;;
51901;SDS011;37929;53.218;6.548;2023-04-16T09:03:43;23.35;;;11.50;;
51901;SDS011;37929;53.218;6.548;2023-04-16T09:06:11;22.60;;;10.70;;
51901;SDS011;37929;53.218;6.548;2023-04-16T09:08:39;23.05;;;12.10;;
51901;SDS011;37929;53.218;6.548;2023-04-16T09:11:05;21.20;;;11.38;;
51901;SDS011;37929;53.218;6.548;2023-04-16T09:13:31;20.73;;;10.70;;
51901;SDS011;37929;53.218;6.548;2023-04-16T09:15:57;25.05;;;10.90;;
51901;SDS011;37929;53.218;6.548;2023-04-16T09:18:23;25.15;;;12.02;;
51901;SDS011;37929;53.218;6.548;2023-04-16T09:20:50;23.90;;;11.82;;
51901;SDS011;37929;53.218;6.548;2023-04-16T09:23:16;23.33;;;12.27;;
51901;SDS011;37929;53.218;6.548;2023-04-16T09:25:42;20.63;;;11.15;;
51901;SDS011;37929;53.218;6.548;2023-04-16T09:28:09;17.42;;;10.43;;
51901;SDS011;37929;53.218;6.548;2023-04-16T09:30:35;27.27;;;11.68;;
51901;SDS011;37929;53.218;6.548;2023-04-16T09:33:15;21.92;;;11.13;;
51901;SDS011;37929;53.218;6.548;2023-04-16T09:35:47;20.05;;;10.98;;
51901;SDS011;37929;53.218;6.548;2023-04-16T09:38:14;26.60;;;11.93;;
51901;SDS011;37929;53.218;6.548;2023-04-16T09:40:41;29.17;;;11.85;;
51901;SDS011;37929;53.218;6.548;2023-04-16T09:43:13;17.77;;;9.52;;
51901;SDS011;37929;53.218;6.548;2023-04-16T09:45:50;21.75;;;10.55;;
51901;SDS011;37929;53.218;6.548;2023-04-16T09:48:26;24.17;;;11.15;;
51901;SDS011;37929;53.218;6.548;2023-04-16T09:50:52;19.35;;;11.35;;
51901;SDS011;37929;53.218;6.548;2023-04-16T09:53:24;32.50;;;12.80;;
51901;SDS011;37929;53.218;6.548;2023-04-16T09:58:20;23.60;;;11.07;;
51901;SDS011;37929;53.218;6.548;2023-04-16T10:00:48;20.45;;;11.32;;
51901;SDS011;37929;53.218;6.548;2023-04-16T10:03:19;28.42;;;11.55;;
51901;SDS011;37929;53.218;6.548;2023-04-16T10:06:00;21.23;;;11.15;;
51901;SDS011;37929;53.218;6.548;2023-04-16T10:08:42;23.95;;;11.35;;
51901;SDS011;37929;53.218;6.548;2023-04-16T10:11:08;17.70;;;10.90;;
51901;SDS011;37929;53.218;6.548;2023-04-16T10:13:35;20.42;;;11.13;;
51901;SDS011;37929;53.218;6.548;2023-04-16T10:16:01;22.70;;;11.45;;
51901;SDS011;37929;53.218;6.548;2023-04-16T10:18:28;23.42;;;12.23;;
51901;SDS011;37929;53.218;6.548;2023-04-16T10:20:53;19.60;;;10.75;;
51901;SDS011;37929;53.218;6.548;2023-04-16T10:23:20;27.08;;;11.18;;
51901;SDS011;37929;53.218;6.548;2023-04-16T10:25:47;18.58;;;10.82;;
51901;SDS011;37929;53.218;6.548;2023-04-16T10:28:14;17.83;;;10.90;;
51901;SDS011;37929;53.218;6.548;2023-04-16T10:30:41;19.20;;;11.15;;
51901;SDS011;37929;53.218;6.548;2023-04-16T10:33:17;23.80;;;11.13;;
51901;SDS011;37929;53.218;6.548;2023-04-16T10:35:45;21.65;;;11.55;;
51901;SDS011;37929;53.218;6.548;2023-04-16T10:38:24;23.25;;;11.30;;
51901;SDS011;37929;53.218;6.548;2023-04-16T10:41:01;22.63;;;10.30;;
51901;SDS011;37929;53.218;6.548;2023-04-16T10:43:28;17.60;;;10.10;;
51901;SDS011;37929;53.218;6.548;2023-04-16T10:45:55;19.23;;;11.15;;
51901;SDS011;37929;53.218;6.548;2023-04-16T10:48:23;17.77;;;10.57;;
51901;SDS011;37929;53.218;6.548;2023-04-16T10:50:55;20.25;;;10.63;;
51901;SDS011;37929;53.218;6.548;2023-04-16T10:58:34;22.42;;;10.27;;
51901;SDS011;37929;53.218;6.548;2023-04-16T11:01:00;26.15;;;11.15;;
51901;SDS011;37929;53.218;6.548;2023-04-16T11:03:31;19.98;;;11.60;;
51901;SDS011;37929;53.218;6.548;2023-04-16T11:06:10;21.42;;;11.10;;
51901;SDS011;37929;53.218;6.548;2023-04-16T11:08:42;19.10;;;11.07;;
51901;SDS011;37929;53.218;6.548;2023-04-16T11:11:10;23.98;;;11.40;;
51901;SDS011;37929;53.218;6.548;2023-04-16T11:13:36;25.20;;;12.18;;
51901;SDS011;37929;53.218;6.548;2023-04-16T11:16:03;21.95;;;10.80;;
51901;SDS011;37929;53.218;6.548;2023-04-16T11:18:29;18.67;;;10.93;;
51901;SDS011;37929;53.218;6.548;2023-04-16T11:20:56;21.67;;;11.43;;
51901;SDS011;37929;53.218;6.548;2023-04-16T11:23:22;23.50;;;11.63;;
51901;SDS011;37929;53.218;6.548;2023-04-16T11:25:47;24.92;;;11.02;;
51901;SDS011;37929;53.218;6.548;2023-04-16T11:28:19;18.63;;;10.77;;
51901;SDS011;37929;53.218;6.548;2023-04-16T11:30:45;18.63;;;11.05;;
51901;SDS011;37929;53.218;6.548;2023-04-16T11:33:13;21.65;;;11.90;;
51901;SDS011;37929;53.218;6.548;2023-04-16T11:35:40;19.95;;;11.88;;
51901;SDS011;37929;53.218;6.548;2023-04-16T11:38:07;21.25;;;10.65;;
51901;SDS011;37929;53.218;6.548;2023-04-16T11:40:33;19.45;;;11.40;;
51901;SDS011;37929;53.218;6.548;2023-04-16T11:43:13;19.48;;;11.13;;
51901;SDS011;37929;53.218;6.548;2023-04-16T11:46:01;20.10;;;11.35;;
51901;SDS011;37929;53.218;6.548;2023-04-16T11:51:16;23.50;;;11.80;;
51901;SDS011;37929;53.218;6.548;2023-04-16T11:53:46;21.08;;;11.63;;
51901;SDS011;37929;53.218;6.548;2023-04-16T11:56:26;22.60;;;11.32;;
51901;SDS011;37929;53.218;6.548;2023-04-16T11:59:06;21.77;;;11.75;;
51901;SDS011;37929;53.218;6.548;2023-04-16T12:01:34;18.27;;;10.93;;
51901;SDS011;37929;53.218;6.548;2023-04-16T12:04:01;23.02;;;11.48;;
51901;SDS011;37929;53.218;6.548;2023-04-16T12:06:28;19.75;;;11.90;;
51901;SDS011;37929;53.218;6.548;2023-04-16T12:08:53;17.00;;;11.50;;
51901;SDS011;37929;53.218;6.548;2023-04-16T12:11:19;18.40;;;11.18;;
51901;SDS011;37929;53.218;6.548;2023-04-16T12:16:37;22.75;;;11.63;;
51901;SDS011;37929;53.218;6.548;2023-04-16T12:19:03;19.88;;;10.98;;
51901;SDS011;37929;53.218;6.548;2023-04-16T12:22:02;20.70;;;11.32;;
51901;SDS011;37929;53.218;6.548;2023-04-16T12:24:24;20.30;;;11.85;;
51901;SDS011;37929;53.218;6.548;2023-04-16T12:26:51;21.02;;;11.98;;
51901;SDS011;37929;53.218;6.548;2023-04-16T12:29:27;16.65;;;11.15;;
51901;SDS011;37929;53.218;6.548;2023-04-16T12:31:53;18.30;;;10.90;;
51901;SDS011;37929;53.218;6.548;2023-04-16T12:34:19;21.08;;;10.70;;
51901;SDS011;37929;53.218;6.548;2023-04-16T12:36:46;21.85;;;12.05;;
51901;SDS011;37929;53.218;6.548;2023-04-16T12:39:26;15.35;;;10.73;;
51901;SDS011;37929;53.218;6.548;2023-04-16T12:41:52;18.65;;;11.30;;
51901;SDS011;37929;53.218;6.548;2023-04-16T12:44:18;15.98;;;10.93;;
51901;SDS011;37929;53.218;6.548;2023-04-16T12:46:44;19.13;;;11.20;;
51901;SDS011;37929;53.218;6.548;2023-04-16T12:49:10;20.25;;;12.07;;
51901;SDS011;37929;53.218;6.548;2023-04-16T12:51:36;19.23;;;11.60;;
51901;SDS011;37929;53.218;6.548;2023-04-16T12:54:03;18.55;;;12.07;;
51901;SDS011;37929;53.218;6.548;2023-04-16T12:56:32;21.52;;;12.30;;
51901;SDS011;37929;53.218;6.548;2023-04-16T12:58:58;20.70;;;11.85;;
51901;SDS011;37929;53.218;6.548;2023-04-16T13:01:24;18.63;;;12.85;;
51901;SDS011;37929;53.218;6.548;2023-04-16T13:03:50;18.88;;;12.00;;
51901;SDS011;37929;53.218;6.548;2023-04-16T13:06:16;21.45;;;11.55;;
51901;SDS011;37929;53.218;6.548;2023-04-16T13:08:42;20.70;;;11.45;;
51901;SDS011;37929;53.218;6.548;2023-04-16T13:11:09;17.52;;;11.18;;
51901;SDS011;37929;53.218;6.548;2023-04-16T13:13:35;20.40;;;11.27;;
51901;SDS011;37929;53.218;6.548;2023-04-16T13:16:01;23.00;;;11.90;;
51901;SDS011;37929;53.218;6.548;2023-04-16T13:18:33;20.02;;;11.65;;
51901;SDS011;37929;53.218;6.548;2023-04-16T13:21:00;24.38;;;11.65;;
51901;SDS011;37929;53.218;6.548;2023-04-16T13:23:26;20.98;;;12.32;;
51901;SDS011;37929;53.218;6.548;2023-04-16T13:25:52;18.52;;;10.43;;
51901;SDS011;37929;53.218;6.548;2023-04-16T13:28:18;19.40;;;11.60;;
51901;SDS011;37929;53.218;6.548;2023-04-16T13:30:44;19.83;;;11.48;;
51901;SDS011;37929;53.218;6.548;2023-04-16T13:33:11;22.70;;;11.80;;
51901;SDS011;37929;53.218;6.548;2023-04-16T13:35:37;16.73;;;10.80;;
51901;SDS011;37929;53.218;6.548;2023-04-16T13:38:03;22.15;;;11.23;;
51901;SDS011;37929;53.218;6.548;2023-04-16T13:40:29;25.02;;;12.18;;
51901;SDS011;37929;53.218;6.548;2023-04-16T13:42:55;21.63;;;11.77;;
51901;SDS011;37929;53.218;6.548;2023-04-16T13:45:21;22.45;;;12.15;;
51901;SDS011;37929;53.218;6.548;2023-04-16T13:47:47;18.55;;;11.13;;
51901;SDS011;37929;53.218;6.548;2023-04-16T13:50:13;20.00;;;11.63;;
51901;SDS011;37929;53.218;6.548;2023-04-16T13:52:41;21.95;;;10.48;;
51901;SDS011;37929;53.218;6.548;2023-04-16T13:55:06;22.13;;;11.70;;
51901;SDS011;37929;53.218;6.548;2023-04-16T13:57:33;20.98;;;11.98;;
51901;SDS011;37929;53.218;6.548;2023-04-16T13:59:59;17.08;;;10.77;;
51901;SDS011;37929;53.218;6.548;2023-04-16T14:02:25;19.15;;;11.50;;
51901;SDS011;37929;53.218;6.548;2023-04-16T14:04:51;20.17;;;11.02;;
51901;SDS011;37929;53.218;6.548;2023-04-16T14:07:17;21.10;;;11.32;;
51901;SDS011;37929;53.218;6.548;2023-04-16T14:09:46;19.67;;;10.95;;
51901;SDS011;37929;53.218;6.548;2023-04-16T14:12:12;14.82;;;10.13;;
51901;SDS011;37929;53.218;6.548;2023-04-16T14:14:38;23.00;;;11.13;;
51901;SDS011;37929;53.218;6.548;2023-04-16T14:17:05;22.60;;;11.27;;
51901;SDS011;37929;53.218;6.548;2023-04-16T14:19:31;19.27;;;10.48;;
51901;SDS011;37929;53.218;6.548;2023-04-16T14:21:57;18.33;;;11.00;;
51901;SDS011;37929;53.218;6.548;2023-04-16T14:24:23;20.80;;;11.75;;
51901;SDS011;37929;53.218;6.548;2023-04-16T14:26:48;21.67;;;11.23;;
51901;SDS011;37929;53.218;6.548;2023-04-16T14:29:14;19.63;;;10.50;;
51901;SDS011;37929;53.218;6.548;2023-04-16T14:31:40;20.98;;;11.65;;
51901;SDS011;37929;53.218;6.548;2023-04-16T14:34:06;18.98;;;11.05;;